sensor_id;sensor_type;location;lat;lon;timestamp;pressure;altitude;pressure_sealevel;temperature;humidity
44765;BME280;30484;52.382;5.260;2022-10-16T00:00:33;101032.53;;;16.69;100.00
44765;BME280;30484;52.382;5.260;2022-10-16T00:03:05;101023.44;;;17.07;100.00
44765;BME280;30484;52.382;5.260;2022-10-16T00:05:41;101018.16;;;17.30;100.00
44765;BME280;30484;52.382;5.260;2022-10-16T00:08:14;101006.22;;;16.97;100.00
44765;BME280;30484;52.382;5.260;2022-10-16T00:10:45;101009.75;;;16.97;100.00
44765;BME280;30484;52.382;5.260;2022-10-16T00:13:15;101009.94;;;16.70;100.00
44765;BME280;30484;52.382;5.260;2022-10-16T00:15:46;100998.78;;;17.00;100.00
44765;BME280;30484;52.382;5.260;2022-10-16T00:18:20;101008.13;;;16.70;100.00
44765;BME280;30484;52.382;5.260;2022-10-16T00:20:50;100994.28;;;17.12;100.00
44765;BME280;30484;52.382;5.260;2022-10-16T00:23:20;101002.72;;;17.07;100.00
44765;BME280;30484;52.382;5.260;2022-10-16T00:25:55;100998.88;;;16.86;100.00
44765;BME280;30484;52.382;5.260;2022-10-16T00:28:26;100986.97;;;17.01;100.00
44765;BME280;30484;52.382;5.260;2022-10-16T00:30:55;100994.69;;;16.58;100.00
44765;BME280;30484;52.382;5.260;2022-10-16T00:33:27;100964.69;;;17.11;100.00
44765;BME280;30484;52.382;5.260;2022-10-16T00:35:58;100978.41;;;16.83;100.00
44765;BME280;30484;52.382;5.260;2022-10-16T00:38:27;100991.41;;;17.02;100.00
44765;BME280;30484;52.382;5.260;2022-10-16T00:40:57;100984.44;;;17.11;100.00
44765;BME280;30484;52.382;5.260;2022-10-16T00:43:37;100994.88;;;17.16;100.00
44765;BME280;30484;52.382;5.260;2022-10-16T00:46:15;100978.31;;;17.09;100.00
44765;BME280;30484;52.382;5.260;2022-10-16T00:48:50;100975.72;;;17.07;100.00
44765;BME280;30484;52.382;5.260;2022-10-16T00:51:23;100987.31;;;17.21;100.00
44765;BME280;30484;52.382;5.260;2022-10-16T00:53:59;100969.19;;;17.34;100.00
44765;BME280;30484;52.382;5.260;2022-10-16T00:56:28;100961.34;;;17.42;100.00
44765;BME280;30484;52.382;5.260;2022-10-16T00:59:02;100974.56;;;17.23;100.00
44765;BME280;30484;52.382;5.260;2022-10-16T01:01:33;100970.44;;;17.30;100.00
44765;BME280;30484;52.382;5.260;2022-10-16T01:04:01;100975.19;;;17.27;100.00
44765;BME280;30484;52.382;5.260;2022-10-16T01:06:37;100978.63;;;17.29;100.00
44765;BME280;30484;52.382;5.260;2022-10-16T01:09:17;100975.22;;;17.02;100.00
44765;BME280;30484;52.382;5.260;2022-10-16T01:12:00;100978.44;;;17.07;100.00
44765;BME280;30484;52.382;5.260;2022-10-16T01:14:40;100971.25;;;16.95;100.00
44765;BME280;30484;52.382;5.260;2022-10-16T01:17:15;100981.09;;;17.32;100.00
44765;BME280;30484;52.382;5.260;2022-10-16T01:20:14;100975.16;;;16.91;100.00
44765;BME280;30484;52.382;5.260;2022-10-16T01:23:07;100978.31;;;17.09;100.00
44765;BME280;30484;52.382;5.260;2022-10-16T01:26:10;100968.72;;;17.05;100.00
44765;BME280;30484;52.382;5.260;2022-10-16T01:28:51;100984.16;;;17.03;100.00
44765;BME280;30484;52.382;5.260;2022-10-16T01:31:25;100982.72;;;17.10;100.00
44765;BME280;30484;52.382;5.260;2022-10-16T01:34:00;100967.50;;;17.45;100.00
44765;BME280;30484;52.382;5.260;2022-10-16T01:36:37;100966.34;;;17.24;100.00
44765;BME280;30484;52.382;5.260;2022-10-16T01:39:10;100968.94;;;17.26;100.00
44765;BME280;30484;52.382;5.260;2022-10-16T01:41:44;100975.81;;;17.30;100.00
44765;BME280;30484;52.382;5.260;2022-10-16T01:44:18;100962.28;;;17.19;100.00
44765;BME280;30484;52.382;5.260;2022-10-16T01:46:52;100974.50;;;17.36;100.00
44765;BME280;30484;52.382;5.260;2022-10-16T01:49:25;100971.69;;;17.49;100.00
44765;BME280;30484;52.382;5.260;2022-10-16T01:52:00;100967.75;;;17.41;100.00
44765;BME280;30484;52.382;5.260;2022-10-16T01:54:33;100976.75;;;17.53;100.00
44765;BME280;30484;52.382;5.260;2022-10-16T01:57:05;100984.16;;;17.03;100.00
44765;BME280;30484;52.382;5.260;2022-10-16T01:59:42;100988.03;;;17.12;100.00
44765;BME280;30484;52.382;5.260;2022-10-16T02:02:12;100994.50;;;17.09;100.00
44765;BME280;30484;52.382;5.260;2022-10-16T02:04:45;100984.00;;;17.29;100.00
44765;BME280;30484;52.382;5.260;2022-10-16T02:07:15;100991.78;;;17.33;100.00
44765;BME280;30484;52.382;5.260;2022-10-16T02:09:47;100995.41;;;16.97;100.00
44765;BME280;30484;52.382;5.260;2022-10-16T02:12:28;100996.84;;;17.14;100.00
44765;BME280;30484;52.382;5.260;2022-10-16T02:15:05;101001.47;;;17.00;100.00
44765;BME280;30484;52.382;5.260;2022-10-16T02:17:34;101007.53;;;16.91;100.00
44765;BME280;30484;52.382;5.260;2022-10-16T02:20:05;101003.19;;;17.37;100.00
44765;BME280;30484;52.382;5.260;2022-10-16T02:22:37;101001.66;;;17.21;100.00
44765;BME280;30484;52.382;5.260;2022-10-16T02:25:10;101015.50;;;16.93;100.00
44765;BME280;30484;52.382;5.260;2022-10-16T02:27:47;101024.38;;;17.19;100.00
44765;BME280;30484;52.382;5.260;2022-10-16T02:30:27;101019.78;;;17.08;100.00
44765;BME280;30484;52.382;5.260;2022-10-16T02:33:01;101039.94;;;16.78;100.00
44765;BME280;30484;52.382;5.260;2022-10-16T02:35:31;101036.75;;;16.47;100.00
44765;BME280;30484;52.382;5.260;2022-10-16T02:38:02;101046.59;;;16.98;100.00
44765;BME280;30484;52.382;5.260;2022-10-16T02:40:32;101052.44;;;16.92;100.00
44765;BME280;30484;52.382;5.260;2022-10-16T02:43:04;101047.91;;;16.93;100.00
44765;BME280;30484;52.382;5.260;2022-10-16T02:45:34;101058.41;;;16.71;100.00
44765;BME280;30484;52.382;5.260;2022-10-16T02:48:05;101069.25;;;16.33;100.00
44765;BME280;30484;52.382;5.260;2022-10-16T02:50:34;101065.47;;;16.35;100.00
44765;BME280;30484;52.382;5.260;2022-10-16T02:53:07;101076.50;;;16.32;100.00
44765;BME280;30484;52.382;5.260;2022-10-16T02:55:37;101073.31;;;16.64;100.00
44765;BME280;30484;52.382;5.260;2022-10-16T02:58:06;101075.44;;;16.85;100.00
44765;BME280;30484;52.382;5.260;2022-10-16T03:00:37;101083.38;;;16.49;100.00
44765;BME280;30484;52.382;5.260;2022-10-16T03:03:06;101086.19;;;16.48;100.00
44765;BME280;30484;52.382;5.260;2022-10-16T03:05:35;101091.09;;;16.67;100.00
44765;BME280;30484;52.382;5.260;2022-10-16T03:08:04;101086.88;;;16.76;100.00
44765;BME280;30484;52.382;5.260;2022-10-16T03:10:37;101090.81;;;17.08;100.00
44765;BME280;30484;52.382;5.260;2022-10-16T03:13:06;101088.97;;;16.59;100.00
44765;BME280;30484;52.382;5.260;2022-10-16T03:15:36;101087.91;;;16.23;100.00
44765;BME280;30484;52.382;5.260;2022-10-16T03:18:04;101085.81;;;16.78;100.00
44765;BME280;30484;52.382;5.260;2022-10-16T03:20:33;101095.03;;;16.24;100.00
44765;BME280;30484;52.382;5.260;2022-10-16T03:23:02;101081.09;;;16.43;100.00
44765;BME280;30484;52.382;5.260;2022-10-16T03:25:31;101098.06;;;16.32;100.00
44765;BME280;30484;52.382;5.260;2022-10-16T03:28:00;101097.38;;;16.42;100.00
44765;BME280;30484;52.382;5.260;2022-10-16T03:30:32;101101.38;;;16.74;100.00
44765;BME280;30484;52.382;5.260;2022-10-16T03:33:04;101093.94;;;16.39;100.00
44765;BME280;30484;52.382;5.260;2022-10-16T03:35:33;101091.31;;;16.77;100.00
44765;BME280;30484;52.382;5.260;2022-10-16T03:38:02;101109.66;;;16.71;100.00
44765;BME280;30484;52.382;5.260;2022-10-16T03:40:32;101114.09;;;16.60;100.00
44765;BME280;30484;52.382;5.260;2022-10-16T03:43:00;101112.56;;;16.94;100.00
44765;BME280;30484;52.382;5.260;2022-10-16T03:45:30;101101.13;;;16.78;100.00
44765;BME280;30484;52.382;5.260;2022-10-16T03:47:58;101117.25;;;16.66;100.00
44765;BME280;30484;52.382;5.260;2022-10-16T03:50:33;101107.09;;;16.57;100.00
44765;BME280;30484;52.382;5.260;2022-10-16T03:53:04;101112.16;;;16.49;100.00
44765;BME280;30484;52.382;5.260;2022-10-16T03:55:33;101125.75;;;16.34;100.00
44765;BME280;30484;52.382;5.260;2022-10-16T03:58:02;101115.50;;;16.65;100.00
44765;BME280;30484;52.382;5.260;2022-10-16T04:00:31;101131.25;;;16.59;100.00
44765;BME280;30484;52.382;5.260;2022-10-16T04:03:02;101117.34;;;16.65;100.00
44765;BME280;30484;52.382;5.260;2022-10-16T04:05:33;101133.84;;;16.21;100.00
44765;BME280;30484;52.382;5.260;2022-10-16T04:08:03;101139.91;;;16.38;100.00
44765;BME280;30484;52.382;5.260;2022-10-16T04:10:32;101142.69;;;16.88;100.00
44765;BME280;30484;52.382;5.260;2022-10-16T04:13:01;101145.47;;;15.96;100.00
44765;BME280;30484;52.382;5.260;2022-10-16T04:15:32;101140.75;;;16.38;100.00
44765;BME280;30484;52.382;5.260;2022-10-16T04:18:01;101149.78;;;16.12;100.00
44765;BME280;30484;52.382;5.260;2022-10-16T04:20:32;101155.22;;;16.37;100.00
44765;BME280;30484;52.382;5.260;2022-10-16T04:23:02;101155.63;;;16.31;100.00
44765;BME280;30484;52.382;5.260;2022-10-16T04:25:31;101168.16;;;16.45;100.00
44765;BME280;30484;52.382;5.260;2022-10-16T04:28:00;101155.22;;;16.50;100.00
44765;BME280;30484;52.382;5.260;2022-10-16T04:30:32;101183.16;;;16.36;100.00
44765;BME280;30484;52.382;5.260;2022-10-16T04:33:02;101183.56;;;16.30;100.00
44765;BME280;30484;52.382;5.260;2022-10-16T04:35:32;101183.47;;;16.32;100.00
44765;BME280;30484;52.382;5.260;2022-10-16T04:38:02;101183.69;;;16.42;100.00
44765;BME280;30484;52.382;5.260;2022-10-16T04:40:31;101180.47;;;16.49;100.00
44765;BME280;30484;52.382;5.260;2022-10-16T04:43:06;101188.44;;;16.51;100.00
44765;BME280;30484;52.382;5.260;2022-10-16T04:45:34;101196.53;;;16.38;100.00
44765;BME280;30484;52.382;5.260;2022-10-16T04:48:03;101191.03;;;16.39;100.00
44765;BME280;30484;52.382;5.260;2022-10-16T04:50:34;101187.59;;;16.37;100.00
44765;BME280;30484;52.382;5.260;2022-10-16T04:53:05;101185.97;;;16.48;100.00
44765;BME280;30484;52.382;5.260;2022-10-16T04:55:37;101191.38;;;16.48;100.00
44765;BME280;30484;52.382;5.260;2022-10-16T04:58:08;101202.63;;;16.14;100.00
44765;BME280;30484;52.382;5.260;2022-10-16T05:00:37;101215.56;;;16.09;100.00
44765;BME280;30484;52.382;5.260;2022-10-16T05:03:08;101214.94;;;16.31;100.00
44765;BME280;30484;52.382;5.260;2022-10-16T05:05:42;101206.03;;;16.44;100.00
44765;BME280;30484;52.382;5.260;2022-10-16T05:08:12;101203.56;;;16.53;100.00
44765;BME280;30484;52.382;5.260;2022-10-16T05:10:44;101223.38;;;16.39;100.00
44765;BME280;30484;52.382;5.260;2022-10-16T05:13:15;101231.56;;;16.25;100.00
44765;BME280;30484;52.382;5.260;2022-10-16T05:15:47;101237.59;;;16.42;100.00
44765;BME280;30484;52.382;5.260;2022-10-16T05:18:18;101242.06;;;16.55;100.00
44765;BME280;30484;52.382;5.260;2022-10-16T05:20:48;101251.66;;;16.47;100.00
44765;BME280;30484;52.382;5.260;2022-10-16T05:23:20;101261.16;;;16.52;100.00
44765;BME280;30484;52.382;5.260;2022-10-16T05:25:56;101259.97;;;16.44;100.00
44765;BME280;30484;52.382;5.260;2022-10-16T05:28:27;101263.13;;;16.63;100.00
44765;BME280;30484;52.382;5.260;2022-10-16T05:30:57;101255.75;;;16.52;100.00
44765;BME280;30484;52.382;5.260;2022-10-16T05:33:29;101267.13;;;16.83;100.00
44765;BME280;30484;52.382;5.260;2022-10-16T05:36:03;101268.31;;;16.79;100.00
44765;BME280;30484;52.382;5.260;2022-10-16T05:38:35;101264.03;;;16.36;100.00
44765;BME280;30484;52.382;5.260;2022-10-16T05:41:05;101273.00;;;16.50;100.00
44765;BME280;30484;52.382;5.260;2022-10-16T05:43:35;101278.88;;;16.56;100.00
44765;BME280;30484;52.382;5.260;2022-10-16T05:46:07;101285.50;;;16.38;100.00
44765;BME280;30484;52.382;5.260;2022-10-16T05:48:37;101256.38;;;16.43;100.00
44765;BME280;30484;52.382;5.260;2022-10-16T05:51:10;101282.25;;;16.33;100.00
44765;BME280;30484;52.382;5.260;2022-10-16T05:53:43;101283.91;;;16.48;100.00
44765;BME280;30484;52.382;5.260;2022-10-16T05:56:14;101296.03;;;16.68;100.00
44765;BME280;30484;52.382;5.260;2022-10-16T05:58:44;101296.59;;;16.73;100.00
44765;BME280;30484;52.382;5.260;2022-10-16T06:01:16;101310.38;;;16.56;100.00
44765;BME280;30484;52.382;5.260;2022-10-16T06:03:47;101311.41;;;16.41;100.00
44765;BME280;30484;52.382;5.260;2022-10-16T06:06:19;101306.63;;;16.31;100.00
44765;BME280;30484;52.382;5.260;2022-10-16T06:08:50;101310.38;;;16.56;100.00
44765;BME280;30484;52.382;5.260;2022-10-16T06:11:23;101314.75;;;16.44;100.00
44765;BME280;30484;52.382;5.260;2022-10-16T06:13:53;101315.19;;;16.91;100.00
44765;BME280;30484;52.382;5.260;2022-10-16T06:16:29;101317.81;;;16.65;100.00
44765;BME280;30484;52.382;5.260;2022-10-16T06:18:57;101313.81;;;16.58;100.00
44765;BME280;30484;52.382;5.260;2022-10-16T06:21:29;101308.00;;;16.64;100.00
44765;BME280;30484;52.382;5.260;2022-10-16T06:23:58;101299.78;;;16.53;100.00
44765;BME280;30484;52.382;5.260;2022-10-16T06:26:30;101301.97;;;16.73;100.00
44765;BME280;30484;52.382;5.260;2022-10-16T06:29:02;101314.88;;;16.55;100.00
44765;BME280;30484;52.382;5.260;2022-10-16T06:31:31;101320.00;;;16.33;100.00
44765;BME280;30484;52.382;5.260;2022-10-16T06:34:01;101325.88;;;16.12;100.00
44765;BME280;30484;52.382;5.260;2022-10-16T06:36:33;101314.31;;;16.37;100.00
44765;BME280;30484;52.382;5.260;2022-10-16T06:39:03;101317.66;;;16.41;100.00
44765;BME280;30484;52.382;5.260;2022-10-16T06:41:31;101334.47;;;16.32;100.00
44765;BME280;30484;52.382;5.260;2022-10-16T06:44:00;101350.91;;;16.00;100.00
44765;BME280;30484;52.382;5.260;2022-10-16T06:46:33;101352.06;;;16.37;100.00
44765;BME280;30484;52.382;5.260;2022-10-16T06:49:02;101359.03;;;16.27;100.00
44765;BME280;30484;52.382;5.260;2022-10-16T06:51:33;101379.25;;;16.20;100.00
44765;BME280;30484;52.382;5.260;2022-10-16T06:54:09;101379.16;;;16.21;100.00
44765;BME280;30484;52.382;5.260;2022-10-16T06:56:38;101380.09;;;16.08;100.00
44765;BME280;30484;52.382;5.260;2022-10-16T06:59:06;101368.38;;;16.49;100.00
44765;BME280;30484;52.382;5.260;2022-10-16T07:01:36;101366.50;;;16.36;100.00
44765;BME280;30484;52.382;5.260;2022-10-16T07:04:05;101382.69;;;16.64;100.00
44765;BME280;30484;52.382;5.260;2022-10-16T07:06:35;101380.00;;;16.36;100.00
44765;BME280;30484;52.382;5.260;2022-10-16T07:09:06;101382.47;;;16.67;100.00
44765;BME280;30484;52.382;5.260;2022-10-16T07:11:38;101392.09;;;16.44;100.00
44765;BME280;30484;52.382;5.260;2022-10-16T07:14:15;101398.88;;;16.36;100.00
44765;BME280;30484;52.382;5.260;2022-10-16T07:16:46;101395.50;;;16.33;100.00
44765;BME280;30484;52.382;5.260;2022-10-16T07:19:18;101402.91;;;16.44;100.00
44765;BME280;30484;52.382;5.260;2022-10-16T07:21:50;101412.34;;;16.36;100.00
44765;BME280;30484;52.382;5.260;2022-10-16T07:24:19;101417.88;;;16.06;100.00
44765;BME280;30484;52.382;5.260;2022-10-16T07:26:49;101420.50;;;16.22;100.00
44765;BME280;30484;52.382;5.260;2022-10-16T07:29:20;101433.19;;;16.62;100.00
44765;BME280;30484;52.382;5.260;2022-10-16T07:31:51;101424.94;;;16.50;100.00
44765;BME280;30484;52.382;5.260;2022-10-16T07:34:20;101429.22;;;16.26;100.00
44765;BME280;30484;52.382;5.260;2022-10-16T07:36:51;101434.09;;;16.48;100.00
44765;BME280;30484;52.382;5.260;2022-10-16T07:39:20;101440.06;;;16.66;100.00
44765;BME280;30484;52.382;5.260;2022-10-16T07:41:50;101428.84;;;16.59;100.00
44765;BME280;30484;52.382;5.260;2022-10-16T07:44:19;101446.94;;;16.57;100.00
44765;BME280;30484;52.382;5.260;2022-10-16T07:46:48;101450.91;;;16.79;100.00
44765;BME280;30484;52.382;5.260;2022-10-16T07:49:17;101438.59;;;16.47;100.00
44765;BME280;30484;52.382;5.260;2022-10-16T07:51:46;101447.09;;;16.68;100.00
44765;BME280;30484;52.382;5.260;2022-10-16T07:54:17;101443.91;;;17.03;100.00
44765;BME280;30484;52.382;5.260;2022-10-16T07:56:46;101445.72;;;16.76;100.00
44765;BME280;30484;52.382;5.260;2022-10-16T07:59:15;101440.44;;;17.01;100.00
44765;BME280;30484;52.382;5.260;2022-10-16T08:01:44;101446.31;;;16.81;100.00
44765;BME280;30484;52.382;5.260;2022-10-16T08:04:13;101447.78;;;16.99;100.00
44765;BME280;30484;52.382;5.260;2022-10-16T08:06:45;101448.59;;;17.53;100.00
44765;BME280;30484;52.382;5.260;2022-10-16T08:09:15;101458.44;;;17.67;100.00
44765;BME280;30484;52.382;5.260;2022-10-16T08:11:44;101456.28;;;17.59;100.00
44765;BME280;30484;52.382;5.260;2022-10-16T08:14:13;101463.63;;;17.57;100.00
44765;BME280;30484;52.382;5.260;2022-10-16T08:16:44;101465.16;;;18.00;100.00
44765;BME280;30484;52.382;5.260;2022-10-16T08:19:13;101463.22;;;17.63;100.00
44765;BME280;30484;52.382;5.260;2022-10-16T08:21:42;101467.09;;;17.46;100.00
44765;BME280;30484;52.382;5.260;2022-10-16T08:24:11;101473.47;;;18.09;100.00
44765;BME280;30484;52.382;5.260;2022-10-16T08:26:44;101468.50;;;18.03;100.00
44765;BME280;30484;52.382;5.260;2022-10-16T08:29:14;101472.94;;;18.17;100.00
44765;BME280;30484;52.382;5.260;2022-10-16T08:31:42;101460.59;;;18.13;100.00
44765;BME280;30484;52.382;5.260;2022-10-16T08:34:12;101465.81;;;18.03;100.00
44765;BME280;30484;52.382;5.260;2022-10-16T08:36:42;101476.94;;;18.11;100.00
44765;BME280;30484;52.382;5.260;2022-10-16T08:39:11;101477.06;;;18.47;100.00
44765;BME280;30484;52.382;5.260;2022-10-16T08:42:14;101478.09;;;18.33;100.00
44765;BME280;30484;52.382;5.260;2022-10-16T08:45:20;101485.19;;;18.47;100.00
44765;BME280;30484;52.382;5.260;2022-10-16T08:48:05;101491.41;;;18.60;100.00
44765;BME280;30484;52.382;5.260;2022-10-16T08:50:39;101486.59;;;18.90;100.00
44765;BME280;30484;52.382;5.260;2022-10-16T08:53:24;101477.47;;;18.78;100.00
44765;BME280;30484;52.382;5.260;2022-10-16T08:55:54;101485.47;;;18.79;100.00
44765;BME280;30484;52.382;5.260;2022-10-16T08:58:28;101490.38;;;18.87;100.00
44765;BME280;30484;52.382;5.260;2022-10-16T09:01:00;101500.97;;;18.90;100.00
44765;BME280;30484;52.382;5.260;2022-10-16T09:03:49;101507.69;;;18.85;100.00
44765;BME280;30484;52.382;5.260;2022-10-16T09:06:34;101503.38;;;19.06;100.00
44765;BME280;30484;52.382;5.260;2022-10-16T09:09:33;101507.16;;;19.75;100.00
44765;BME280;30484;52.382;5.260;2022-10-16T09:12:32;101512.88;;;19.12;100.00
44765;BME280;30484;52.382;5.260;2022-10-16T09:15:17;101511.31;;;19.56;100.00
44765;BME280;30484;52.382;5.260;2022-10-16T09:17:55;101506.47;;;19.37;100.00
44765;BME280;30484;52.382;5.260;2022-10-16T09:20:42;101516.84;;;19.55;100.00
44765;BME280;30484;52.382;5.260;2022-10-16T09:23:17;101517.66;;;19.79;100.00
44765;BME280;30484;52.382;5.260;2022-10-16T09:25:49;101529.75;;;20.09;100.00
44765;BME280;30484;52.382;5.260;2022-10-16T09:28:18;101519.28;;;19.93;100.00
44765;BME280;30484;52.382;5.260;2022-10-16T09:30:52;101511.66;;;20.32;100.00
44765;BME280;30484;52.382;5.260;2022-10-16T09:33:30;101510.44;;;20.37;100.00
44765;BME280;30484;52.382;5.260;2022-10-16T09:36:04;101501.31;;;20.93;100.00
44765;BME280;30484;52.382;5.260;2022-10-16T09:38:35;101506.09;;;20.68;100.00
44765;BME280;30484;52.382;5.260;2022-10-16T09:41:15;101494.41;;;21.21;100.00
44765;BME280;30484;52.382;5.260;2022-10-16T09:43:55;101489.56;;;21.25;100.00
44765;BME280;30484;52.382;5.260;2022-10-16T09:46:32;101480.59;;;21.13;100.00
44765;BME280;30484;52.382;5.260;2022-10-16T09:49:04;101487.72;;;21.46;100.00
44765;BME280;30484;52.382;5.260;2022-10-16T09:51:37;101484.84;;;21.90;100.00
44765;BME280;30484;52.382;5.260;2022-10-16T09:54:15;101490.16;;;22.22;100.00
44765;BME280;30484;52.382;5.260;2022-10-16T09:56:46;101481.22;;;21.80;100.00
44765;BME280;30484;52.382;5.260;2022-10-16T09:59:21;101473.41;;;21.86;100.00
44765;BME280;30484;52.382;5.260;2022-10-16T10:01:53;101472.22;;;21.79;100.00
44765;BME280;30484;52.382;5.260;2022-10-16T10:04:24;101483.03;;;22.00;100.00
44765;BME280;30484;52.382;5.260;2022-10-16T10:06:57;101478.97;;;22.26;100.00
44765;BME280;30484;52.382;5.260;2022-10-16T10:09:31;101488.28;;;22.64;100.00
44765;BME280;30484;52.382;5.260;2022-10-16T10:12:03;101477.72;;;22.30;100.00
44765;BME280;30484;52.382;5.260;2022-10-16T10:14:37;101496.41;;;22.44;100.00
44765;BME280;30484;52.382;5.260;2022-10-16T10:17:15;101494.59;;;22.23;100.00
44765;BME280;30484;52.382;5.260;2022-10-16T10:19:52;101492.84;;;22.13;100.00
44765;BME280;30484;52.382;5.260;2022-10-16T10:22:30;101497.31;;;22.23;100.00
44765;BME280;30484;52.382;5.260;2022-10-16T10:25:15;101505.84;;;21.78;100.00
44765;BME280;30484;52.382;5.260;2022-10-16T10:28:27;101505.03;;;22.18;100.00
44765;BME280;30484;52.382;5.260;2022-10-16T10:31:06;101506.81;;;22.29;100.00
44765;BME280;30484;52.382;5.260;2022-10-16T10:33:48;101519.44;;;21.78;100.00
44765;BME280;30484;52.382;5.260;2022-10-16T10:36:29;101518.47;;;22.41;100.00
44765;BME280;30484;52.382;5.260;2022-10-16T10:39:06;101530.44;;;22.69;100.00
44765;BME280;30484;52.382;5.260;2022-10-16T10:42:07;101530.06;;;22.43;100.00
44765;BME280;30484;52.382;5.260;2022-10-16T10:45:02;101532.56;;;22.66;100.00
44765;BME280;30484;52.382;5.260;2022-10-16T10:47:44;101536.19;;;22.66;100.00
44765;BME280;30484;52.382;5.260;2022-10-16T10:50:25;101537.53;;;22.41;100.00
44765;BME280;30484;52.382;5.260;2022-10-16T10:53:04;101538.59;;;22.29;100.00
44765;BME280;30484;52.382;5.260;2022-10-16T10:55:43;101539.69;;;22.47;100.00
44765;BME280;30484;52.382;5.260;2022-10-16T11:01:50;101539.81;;;22.46;100.00
44765;BME280;30484;52.382;5.260;2022-10-16T11:08:25;101559.63;;;23.08;100.00
44765;BME280;30484;52.382;5.260;2022-10-16T11:11:14;101563.16;;;22.79;100.00
44765;BME280;30484;52.382;5.260;2022-10-16T11:14:03;101564.09;;;23.29;100.00
44765;BME280;30484;52.382;5.260;2022-10-16T11:16:57;101571.84;;;23.53;100.00
44765;BME280;30484;52.382;5.260;2022-10-16T11:19:57;101570.09;;;23.81;100.00
44765;BME280;30484;52.382;5.260;2022-10-16T11:23:21;101567.72;;;23.39;100.00
44765;BME280;30484;52.382;5.260;2022-10-16T11:26:20;101565.38;;;23.73;100.00
44765;BME280;30484;52.382;5.260;2022-10-16T11:29:01;101567.13;;;23.55;100.00
44765;BME280;30484;52.382;5.260;2022-10-16T11:32:04;101567.13;;;23.65;100.00
44765;BME280;30484;52.382;5.260;2022-10-16T11:34:45;101574.75;;;23.32;100.00
44765;BME280;30484;52.382;5.260;2022-10-16T11:37:42;101564.22;;;23.17;100.00
44765;BME280;30484;52.382;5.260;2022-10-16T11:40:54;101574.88;;;23.30;100.00
44765;BME280;30484;52.382;5.260;2022-10-16T11:43:58;101576.16;;;23.16;100.00
44765;BME280;30484;52.382;5.260;2022-10-16T11:47:05;101575.56;;;23.13;100.00
44765;BME280;30484;52.382;5.260;2022-10-16T11:50:09;101579.31;;;23.21;100.00
44765;BME280;30484;52.382;5.260;2022-10-16T11:53:01;101582.94;;;22.81;100.00
44765;BME280;30484;52.382;5.260;2022-10-16T11:55:47;101584.22;;;23.27;100.00
44765;BME280;30484;52.382;5.260;2022-10-16T11:58:25;101591.25;;;23.30;100.00
44765;BME280;30484;52.382;5.260;2022-10-16T12:01:03;101594.53;;;23.63;100.00
44765;BME280;30484;52.382;5.260;2022-10-16T12:03:45;101591.94;;;23.22;100.00
44765;BME280;30484;52.382;5.260;2022-10-16T12:06:27;101583.44;;;23.06;100.00
44765;BME280;30484;52.382;5.260;2022-10-16T12:09:01;101590.66;;;23.17;100.00
44765;BME280;30484;52.382;5.260;2022-10-16T12:11:37;101588.78;;;23.37;100.00
44765;BME280;30484;52.382;5.260;2022-10-16T12:14:33;101597.84;;;22.77;100.00
44765;BME280;30484;52.382;5.260;2022-10-16T12:17:27;101595.25;;;23.55;100.00
44765;BME280;30484;52.382;5.260;2022-10-16T12:20:25;101599.56;;;23.19;100.00
44765;BME280;30484;52.382;5.260;2022-10-16T12:23:00;101609.25;;;23.02;100.00
44765;BME280;30484;52.382;5.260;2022-10-16T12:25:33;101608.91;;;22.85;100.00
44765;BME280;30484;52.382;5.260;2022-10-16T12:28:17;101610.44;;;22.68;100.00
44765;BME280;30484;52.382;5.260;2022-10-16T12:30:55;101609.66;;;22.87;100.00
44765;BME280;30484;52.382;5.260;2022-10-16T12:33:28;101612.63;;;22.84;100.00
44765;BME280;30484;52.382;5.260;2022-10-16T12:36:01;101617.50;;;23.70;100.00
44765;BME280;30484;52.382;5.260;2022-10-16T12:38:38;101620.50;;;23.28;100.00
44765;BME280;30484;52.382;5.260;2022-10-16T12:41:25;101619.94;;;23.44;100.00
44765;BME280;30484;52.382;5.260;2022-10-16T12:44:00;101625.94;;;23.28;100.00
44765;BME280;30484;52.382;5.260;2022-10-16T12:46:39;101627.44;;;23.61;100.00
44765;BME280;30484;52.382;5.260;2022-10-16T12:49:28;101620.94;;;23.82;100.00
44765;BME280;30484;52.382;5.260;2022-10-16T12:51:58;101616.59;;;23.11;100.00
44765;BME280;30484;52.382;5.260;2022-10-16T12:54:29;101632.00;;;23.71;100.00
44765;BME280;30484;52.382;5.260;2022-10-16T12:57:26;101632.44;;;23.47;100.00
44765;BME280;30484;52.382;5.260;2022-10-16T13:00:15;101637.31;;;23.33;100.00
44765;BME280;30484;52.382;5.260;2022-10-16T13:06:17;101637.91;;;23.66;100.00
44765;BME280;30484;52.382;5.260;2022-10-16T13:09:08;101641.59;;;23.16;100.00
44765;BME280;30484;52.382;5.260;2022-10-16T13:12:10;101633.72;;;23.52;100.00
44765;BME280;30484;52.382;5.260;2022-10-16T13:15:25;101630.72;;;23.75;100.00
44765;BME280;30484;52.382;5.260;2022-10-16T13:18:02;101637.75;;;23.68;100.00
44765;BME280;30484;52.382;5.260;2022-10-16T13:20:46;101639.03;;;23.64;100.00
44765;BME280;30484;52.382;5.260;2022-10-16T13:23:27;101636.75;;;23.49;100.00
44765;BME280;30484;52.382;5.260;2022-10-16T13:26:11;101636.59;;;23.60;100.00
44765;BME280;30484;52.382;5.260;2022-10-16T13:28:45;101637.19;;;23.44;100.00
44765;BME280;30484;52.382;5.260;2022-10-16T13:31:19;101651.53;;;23.47;100.00
44765;BME280;30484;52.382;5.260;2022-10-16T13:33:56;101653.41;;;24.05;100.00